This is the latest recevied weather packets stored in our database for station/object DL9LA-13. If no packets are shown the sender has not sent any weather packets the latest 10 day(s).
| Time | Temp. | Humidity | Pressure | Rain* | Wind** | Luminosity | Snow |
|---|---|---|---|---|---|---|---|
| 1777827623 | 27.22° C | 23% | 966 hPa | - | - | - | - |
| 1777826415 | 27.22° C | 22% | 966 hPa | - | - | - | - |
| 1777825812 | 27.78° C | 22% | 966 hPa | - | - | - | - |
| 1777820982 | 28.89° C | 20% | 966 hPa | - | - | - | - |
| 1777816153 | 27.22° C | 22% | 967 hPa | - | - | - | - |
| 1777814342 | 27.22° C | 22% | 968 hPa | - | - | - | - |
| 1777813738 | 27.22° C | 24% | 968 hPa | - | - | - | - |
| 1777813134 | 26.67° C | 24% | 968 hPa | - | - | - | - |
| 1777812531 | 26.67° C | 25% | 968 hPa | - | - | - | - |
| 1777808305 | 25.56° C | 29% | 969 hPa | - | - | - | - |
| 1777806494 | 25° C | 30% | 969 hPa | - | - | - | - |
| 1777803476 | 23.89° C | 34% | 970 hPa | - | - | - | - |
| 1777800458 | 22.78° C | 37% | 971 hPa | - | - | - | - |
| 1777799251 | 21.67° C | 37% | 971 hPa | - | - | - | - |
| 1777798647 | 21.11° C | 39% | 971 hPa | - | - | - | - |
| 1777798043 | 21.11° C | 38% | 971 hPa | - | - | - | - |
| 1777797440 | 21.11° C | 38% | 971 hPa | - | - | - | - |
| 1777796836 | 20.56° C | 39% | 971 hPa | - | - | - | - |
| 1777796232 | 20° C | 39% | 971 hPa | - | - | - | - |
| 1777795025 | 19.44° C | 39% | 971 hPa | - | - | - | - |
| 1777794422 | 18.89° C | 42% | 971 hPa | - | - | - | - |
| 1777793818 | 18.33° C | 42% | 971 hPa | - | - | - | - |
| 1777793214 | 18.33° C | 41% | 971 hPa | - | - | - | - |
| 1777792611 | 18.89° C | 41% | 971 hPa | - | - | - | - |
| 1777791403 | 17.78° C | 42% | 971 hPa | - | - | - | - |
* Rain since midnight (hover to see other rain measurements)
** Current wind speed in m/s (hover to see current wind gust speed)